createdAt,value
2018-09-22T00:03:20.351Z,2.90
2018-09-22T00:08:18.310Z,2.40
2018-09-22T00:13:16.586Z,2.20
2018-09-22T00:18:17.258Z,2.60
2018-09-22T00:23:22.241Z,1.90
2018-09-22T00:28:22.234Z,1.70
2018-09-22T00:33:25.873Z,2.00
2018-09-22T00:38:28.911Z,2.20
2018-09-22T00:43:32.529Z,2.70
2018-09-22T00:48:44.023Z,2.20
2018-09-22T00:53:54.876Z,2.20
2018-09-22T00:59:05.645Z,2.00
2018-09-22T01:04:14.219Z,2.30
2018-09-22T01:09:16.591Z,2.80
2018-09-22T01:14:27.794Z,2.50
2018-09-22T01:19:38.302Z,1.80
2018-09-22T01:24:46.995Z,2.30
2018-09-22T01:29:55.527Z,2.50
2018-09-22T01:35:05.848Z,3.20
2018-09-22T01:40:14.568Z,3.60
2018-09-22T01:45:17.227Z,3.10
2018-09-22T01:50:23.544Z,3.00
2018-09-22T01:55:28.569Z,2.90
2018-09-22T02:00:34.713Z,2.40
2018-09-22T02:05:40.672Z,2.10
2018-09-22T02:10:46.871Z,3.10
2018-09-22T02:15:53.028Z,2.50
2018-09-22T02:20:58.136Z,2.60
2018-09-22T02:26:04.693Z,3.00
2018-09-22T02:31:21.004Z,2.80
2018-09-22T02:36:26.260Z,2.50
2018-09-22T02:41:31.167Z,2.40
2018-09-22T02:46:40.542Z,2.10
2018-09-22T02:51:46.191Z,2.90
2018-09-22T02:56:55.542Z,2.70
2018-09-22T03:02:09.347Z,3.30
2018-09-22T03:07:14.441Z,2.80
2018-09-22T03:12:19.839Z,3.80
2018-09-22T03:17:26.140Z,3.40
2018-09-22T03:22:32.429Z,3.40
2018-09-22T03:27:46.528Z,3.50
2018-09-22T03:32:55.909Z,3.10
2018-09-22T03:37:58.484Z,3.70
2018-09-22T03:43:10.044Z,3.20
2018-09-22T03:48:12.778Z,2.90
2018-09-22T03:53:16.003Z,3.10
2018-09-22T03:58:26.395Z,2.80
2018-09-22T04:03:29.619Z,2.30
2018-09-22T04:08:38.963Z,2.60
2018-09-22T04:13:41.666Z,2.50
2018-09-22T04:18:52.986Z,2.90
2018-09-22T04:23:54.525Z,2.50
2018-09-22T04:29:03.120Z,3.00
2018-09-22T04:34:05.852Z,3.00
2018-09-22T04:39:06.314Z,2.70
2018-09-22T04:44:10.371Z,2.40
2018-09-22T04:49:10.619Z,2.30
2018-09-22T04:54:14.470Z,2.20
2018-09-22T04:59:14.309Z,1.90
2018-09-22T05:04:19.686Z,2.70
2018-09-22T05:09:23.090Z,2.10
2018-09-22T05:14:26.318Z,2.40
2018-09-22T05:19:38.521Z,2.80
2018-09-22T05:24:40.958Z,2.50
2018-09-22T05:29:52.497Z,2.20
2018-09-22T05:34:57.847Z,2.80
2018-09-22T05:40:01.022Z,2.20
2018-09-22T05:45:04.391Z,2.10
2018-09-22T05:50:07.956Z,1.80
2018-09-22T05:55:22.715Z,2.20
2018-09-22T06:00:24.939Z,2.00
2018-09-22T06:05:36.645Z,2.30
2018-09-22T06:10:39.409Z,1.90
2018-09-22T06:15:50.905Z,2.40
2018-09-22T06:20:53.530Z,2.70
2018-09-22T06:25:57.078Z,2.10
2018-09-22T06:30:57.185Z,2.60
2018-09-22T06:36:09.903Z,2.70
2018-09-22T06:41:11.319Z,2.90
2018-09-22T06:46:22.955Z,2.70
2018-09-22T06:51:25.724Z,2.60
2018-09-22T06:56:26.795Z,3.10
2018-09-22T07:01:36.849Z,2.60
2018-09-22T07:06:37.246Z,3.50
2018-09-22T07:11:42.450Z,2.50
2018-09-22T07:16:46.018Z,2.60
2018-09-22T07:21:41.516Z,2.50
2018-09-22T07:26:46.385Z,3.00
2018-09-22T07:31:50.723Z,3.00
2018-09-22T07:36:57.275Z,2.80
2018-09-22T07:41:58.811Z,2.40
2018-09-22T07:46:56.602Z,2.50
2018-09-22T07:51:58.619Z,2.30
2018-09-22T07:56:57.620Z,2.30
2018-09-22T08:01:52.949Z,2.10
2018-09-22T08:06:47.351Z,1.90
2018-09-22T08:11:41.332Z,1.70
2018-09-22T08:16:37.681Z,1.90
2018-09-22T08:21:33.598Z,2.10
2018-09-22T08:26:29.363Z,2.20
2018-09-22T08:31:25.308Z,1.90
2018-09-22T08:36:21.542Z,2.30
2018-09-22T08:41:24.460Z,2.20
2018-09-22T08:46:17.435Z,2.40
2018-09-22T08:51:14.130Z,2.10
2018-09-22T08:56:08.619Z,1.70
2018-09-22T09:01:04.996Z,2.10
2018-09-22T09:06:04.095Z,1.60
2018-09-22T09:10:58.195Z,2.10
2018-09-22T09:15:52.642Z,1.50
2018-09-22T09:20:47.012Z,1.90
2018-09-22T09:25:40.570Z,1.60
2018-09-22T09:30:35.181Z,2.10
2018-09-22T09:35:26.657Z,3.40
2018-09-22T09:40:19.301Z,1.80
2018-09-22T09:45:12.633Z,2.20
2018-09-22T09:50:03.769Z,1.60
2018-09-22T09:54:55.499Z,1.20
2018-09-22T09:59:49.998Z,1.70
2018-09-22T10:04:45.806Z,1.20
2018-09-22T10:09:43.037Z,2.50
2018-09-22T10:14:35.820Z,2.90
2018-09-22T10:19:29.669Z,2.00
2018-09-22T10:24:23.621Z,1.60
2018-09-22T10:29:17.014Z,1.60
2018-09-22T10:34:10.220Z,1.50
2018-09-22T10:39:02.659Z,1.60
2018-09-22T10:43:55.762Z,1.60
2018-09-22T10:48:46.742Z,1.40
2018-09-22T10:53:37.577Z,1.80
2018-09-22T10:58:28.950Z,1.10
2018-09-22T11:03:22.244Z,1.50
2018-09-22T11:08:18.709Z,1.90
2018-09-22T11:13:12.426Z,0.80
2018-09-22T11:18:16.439Z,1.60
2018-09-22T11:23:11.432Z,1.40
2018-09-22T11:28:04.119Z,1.50
2018-09-22T11:33:00.125Z,0.90
2018-09-22T11:37:53.815Z,1.70
2018-09-22T11:42:49.623Z,1.90
2018-09-22T11:47:45.361Z,1.50
2018-09-22T11:52:38.027Z,1.70
2018-09-22T11:57:34.529Z,1.80
2018-09-22T12:02:25.344Z,1.00
2018-09-22T12:07:16.897Z,1.10
2018-09-22T12:12:08.719Z,2.50
2018-09-22T12:17:00.299Z,1.30
2018-09-22T12:21:57.015Z,1.30
2018-09-22T12:26:51.199Z,2.20
2018-09-22T12:31:44.659Z,1.70
2018-09-22T12:36:40.538Z,1.20
2018-09-22T12:41:36.081Z,0.80
2018-09-22T12:46:31.227Z,1.60
2018-09-22T12:51:26.456Z,1.60
2018-09-22T12:56:22.134Z,2.60
2018-09-22T13:01:15.707Z,1.90
2018-09-22T13:06:11.525Z,1.40
2018-09-22T13:11:06.933Z,1.90
2018-09-22T13:16:01.997Z,2.40
2018-09-22T13:20:56.566Z,1.90
2018-09-22T13:26:01.077Z,2.20
2018-09-22T13:30:55.090Z,1.70
2018-09-22T13:35:50.016Z,1.40
2018-09-22T13:40:42.533Z,1.40
2018-09-22T13:45:46.052Z,1.60
2018-09-22T13:56:27.990Z,1.70
2018-09-22T14:01:20.257Z,1.50
2018-09-22T14:06:15.636Z,4.20
2018-09-22T14:11:26.819Z,3.20
2018-09-22T14:16:21.637Z,2.30
2018-09-22T14:21:28.201Z,6.00
2018-09-22T14:26:26.320Z,8.80
2018-09-22T14:31:21.510Z,1.70
2018-09-22T14:36:19.308Z,9.10
2018-09-22T14:41:13.584Z,2.30
2018-09-22T14:46:21.314Z,2.10
2018-09-22T14:51:14.009Z,3.00
2018-09-22T14:56:23.909Z,4.80
2018-09-22T15:01:23.530Z,7.50
2018-09-22T15:06:27.542Z,2.20
2018-09-22T15:11:25.912Z,3.70
2018-09-22T15:16:40.901Z,2.20
2018-09-22T15:21:57.385Z,2.60
2018-09-22T15:27:09.787Z,1.20
2018-09-22T15:32:05.040Z,1.60
2018-09-22T15:37:03.395Z,1.20
2018-09-22T15:42:14.731Z,1.40
2018-09-22T15:47:29.343Z,6.20
2018-09-22T15:52:26.844Z,7.20
2018-09-22T15:57:22.310Z,1.60
2018-09-22T16:02:25.341Z,2.00
2018-09-22T16:07:49.117Z,3.00
2018-09-22T16:13:04.947Z,3.50
2018-09-22T16:18:16.696Z,2.20
2018-09-22T16:23:32.136Z,7.10
2018-09-22T16:28:53.424Z,4.80
2018-09-22T16:39:09.475Z,2.10
2018-09-22T16:44:18.294Z,1.30
2018-09-22T16:49:19.529Z,1.30
2018-09-22T16:54:30.893Z,1.60
2018-09-22T16:59:33.537Z,1.50
2018-09-22T17:05:01.532Z,1.20
2018-09-22T17:09:54.993Z,1.40
2018-09-22T17:15:14.144Z,1.40
2018-09-22T17:20:36.920Z,1.80
2018-09-22T17:25:31.052Z,1.40
2018-09-22T17:30:38.996Z,3.20
2018-09-22T17:35:49.658Z,1.80
2018-09-22T17:41:07.586Z,2.00
2018-09-22T17:46:13.314Z,2.60
2018-09-22T17:51:20.489Z,2.00
2018-09-22T17:56:29.202Z,2.20
2018-09-22T18:01:33.485Z,2.60
2018-09-22T18:06:40.962Z,2.80
2018-09-22T18:11:57.938Z,3.50
2018-09-22T18:17:04.046Z,3.40
2018-09-22T18:22:11.868Z,3.60
2018-09-22T18:27:21.695Z,3.40
2018-09-22T18:32:28.343Z,3.90
2018-09-22T18:37:36.882Z,7.30
2018-09-22T18:42:47.258Z,4.80
2018-09-22T18:47:56.320Z,5.70
2018-09-22T18:53:05.073Z,5.10
2018-09-22T18:58:20.865Z,4.40
2018-09-22T19:03:19.751Z,2.60
2018-09-22T19:08:31.110Z,2.90
2018-09-22T19:13:34.465Z,2.90
2018-09-22T19:18:46.071Z,3.80
2018-09-22T19:23:51.148Z,4.30
2018-09-22T19:28:56.561Z,3.80
2018-09-22T19:34:04.716Z,3.40
2018-09-22T19:39:15.567Z,3.70
2018-09-22T19:44:27.261Z,3.30
2018-09-22T19:49:34.024Z,3.00
2018-09-22T19:54:38.393Z,3.80
2018-09-22T19:59:46.310Z,2.60
2018-09-22T20:04:54.319Z,2.80
2018-09-22T20:10:01.069Z,2.90
2018-09-22T20:15:15.277Z,2.90
2018-09-22T20:20:23.491Z,3.20
2018-09-22T20:25:32.273Z,2.80
2018-09-22T20:30:40.124Z,3.10
2018-09-22T20:35:49.260Z,2.90
2018-09-22T20:40:58.709Z,3.00
2018-09-22T20:46:06.920Z,3.50
2018-09-22T20:51:24.902Z,3.90
2018-09-22T20:56:34.985Z,3.50
2018-09-22T21:01:44.725Z,3.20
2018-09-22T21:06:59.963Z,3.60
2018-09-22T21:12:10.427Z,3.40
2018-09-22T21:17:27.038Z,3.90
2018-09-22T21:22:42.769Z,4.50
2018-09-22T21:27:54.098Z,4.10
2018-09-22T21:33:08.924Z,4.80
2018-09-22T21:38:22.695Z,5.30
2018-09-22T21:43:35.227Z,5.20
2018-09-22T21:48:49.377Z,5.60
2018-09-22T21:54:06.095Z,6.00
2018-09-22T21:59:16.958Z,5.50
2018-09-22T22:04:28.467Z,5.40
2018-09-22T22:09:40.978Z,5.80
2018-09-22T22:14:49.451Z,5.30
2018-09-22T22:20:07.556Z,5.70
2018-09-22T22:25:18.651Z,5.30
2018-09-22T22:30:30.150Z,4.60
2018-09-22T22:35:52.947Z,5.50
2018-09-22T22:41:03.914Z,4.00
2018-09-22T22:46:15.414Z,3.80
2018-09-22T22:51:35.079Z,3.70
2018-09-22T22:56:48.997Z,5.00
2018-09-22T23:02:05.417Z,4.60
2018-09-22T23:07:16.772Z,4.80
2018-09-22T23:12:32.180Z,7.00
2018-09-22T23:17:43.331Z,6.70
2018-09-22T23:22:55.087Z,6.40
2018-09-22T23:28:06.785Z,4.30
2018-09-22T23:33:22.747Z,4.50
2018-09-22T23:38:37.137Z,4.70
2018-09-22T23:43:45.182Z,4.50
2018-09-22T23:48:57.138Z,5.40
2018-09-22T23:54:06.308Z,7.10
2018-09-22T23:59:13.996Z,7.20
